sensor_id;sensor_type;location;lat;lon;timestamp;P1;durP1;ratioP1;P2;durP2;ratioP2
32780;SDS011;19136;47.032;15.502;2023-02-15T00:01:33;61.40;;;27.40;;
32780;SDS011;19136;47.032;15.502;2023-02-15T00:03:58;68.45;;;28.73;;
32780;SDS011;19136;47.032;15.502;2023-02-15T00:06:24;64.35;;;26.00;;
32780;SDS011;19136;47.032;15.502;2023-02-15T00:08:50;62.90;;;27.45;;
32780;SDS011;19136;47.032;15.502;2023-02-15T00:11:16;59.45;;;27.23;;
32780;SDS011;19136;47.032;15.502;2023-02-15T00:14:13;64.47;;;27.33;;
32780;SDS011;19136;47.032;15.502;2023-02-15T00:16:41;59.72;;;27.05;;
32780;SDS011;19136;47.032;15.502;2023-02-15T00:19:07;63.00;;;26.52;;
32780;SDS011;19136;47.032;15.502;2023-02-15T00:21:34;61.85;;;27.50;;
32780;SDS011;19136;47.032;15.502;2023-02-15T00:24:01;57.78;;;26.20;;
32780;SDS011;19136;47.032;15.502;2023-02-15T00:26:27;68.68;;;28.27;;
32780;SDS011;19136;47.032;15.502;2023-02-15T00:28:53;65.88;;;28.60;;
32780;SDS011;19136;47.032;15.502;2023-02-15T00:31:19;67.03;;;29.58;;
32780;SDS011;19136;47.032;15.502;2023-02-15T00:33:45;67.68;;;27.33;;
32780;SDS011;19136;47.032;15.502;2023-02-15T00:36:10;61.10;;;27.85;;
32780;SDS011;19136;47.032;15.502;2023-02-15T00:38:37;58.10;;;26.23;;
32780;SDS011;19136;47.032;15.502;2023-02-15T00:41:06;59.75;;;26.60;;
32780;SDS011;19136;47.032;15.502;2023-02-15T00:43:32;61.47;;;27.83;;
32780;SDS011;19136;47.032;15.502;2023-02-15T00:45:58;63.42;;;27.25;;
32780;SDS011;19136;47.032;15.502;2023-02-15T00:48:25;62.10;;;26.27;;
32780;SDS011;19136;47.032;15.502;2023-02-15T00:50:52;62.22;;;26.83;;
32780;SDS011;19136;47.032;15.502;2023-02-15T00:53:18;63.88;;;27.23;;
32780;SDS011;19136;47.032;15.502;2023-02-15T00:55:44;64.70;;;27.10;;
32780;SDS011;19136;47.032;15.502;2023-02-15T00:58:10;64.57;;;27.45;;
32780;SDS011;19136;47.032;15.502;2023-02-15T01:00:36;63.05;;;26.77;;
32780;SDS011;19136;47.032;15.502;2023-02-15T01:03:02;63.67;;;27.38;;
32780;SDS011;19136;47.032;15.502;2023-02-15T01:05:28;58.67;;;25.67;;
32780;SDS011;19136;47.032;15.502;2023-02-15T01:07:54;58.28;;;27.05;;
32780;SDS011;19136;47.032;15.502;2023-02-15T01:10:20;65.13;;;27.63;;
32780;SDS011;19136;47.032;15.502;2023-02-15T01:12:46;64.03;;;27.20;;
32780;SDS011;19136;47.032;15.502;2023-02-15T01:15:12;59.22;;;24.95;;
32780;SDS011;19136;47.032;15.502;2023-02-15T01:17:37;60.50;;;26.88;;
32780;SDS011;19136;47.032;15.502;2023-02-15T01:20:03;59.33;;;26.08;;
32780;SDS011;19136;47.032;15.502;2023-02-15T01:22:30;62.90;;;26.40;;
32780;SDS011;19136;47.032;15.502;2023-02-15T01:24:55;64.20;;;27.00;;
32780;SDS011;19136;47.032;15.502;2023-02-15T01:27:21;59.40;;;26.25;;
32780;SDS011;19136;47.032;15.502;2023-02-15T01:29:46;55.30;;;26.02;;
32780;SDS011;19136;47.032;15.502;2023-02-15T01:32:12;60.05;;;27.45;;
32780;SDS011;19136;47.032;15.502;2023-02-15T01:34:38;64.85;;;27.38;;
32780;SDS011;19136;47.032;15.502;2023-02-15T01:37:03;68.70;;;26.95;;
32780;SDS011;19136;47.032;15.502;2023-02-15T01:39:29;67.10;;;27.63;;
32780;SDS011;19136;47.032;15.502;2023-02-15T01:41:54;59.35;;;26.05;;
32780;SDS011;19136;47.032;15.502;2023-02-15T01:49:51;58.83;;;25.63;;
32780;SDS011;19136;47.032;15.502;2023-02-15T01:52:38;56.15;;;25.92;;
32780;SDS011;19136;47.032;15.502;2023-02-15T01:55:14;61.40;;;26.05;;
32780;SDS011;19136;47.032;15.502;2023-02-15T01:57:40;58.78;;;26.50;;
32780;SDS011;19136;47.032;15.502;2023-02-15T02:00:07;59.67;;;26.55;;
32780;SDS011;19136;47.032;15.502;2023-02-15T02:02:50;59.70;;;26.02;;
32780;SDS011;19136;47.032;15.502;2023-02-15T02:05:18;69.28;;;28.58;;
32780;SDS011;19136;47.032;15.502;2023-02-15T02:07:44;61.55;;;27.02;;
32780;SDS011;19136;47.032;15.502;2023-02-15T02:10:12;56.65;;;25.40;;
32780;SDS011;19136;47.032;15.502;2023-02-15T02:12:40;65.43;;;26.17;;
32780;SDS011;19136;47.032;15.502;2023-02-15T02:15:07;57.65;;;26.98;;
32780;SDS011;19136;47.032;15.502;2023-02-15T02:17:49;59.20;;;26.02;;
32780;SDS011;19136;47.032;15.502;2023-02-15T02:39:55;54.80;;;25.90;;
32780;SDS011;19136;47.032;15.502;2023-02-15T02:45:54;68.95;;;27.73;;
32780;SDS011;19136;47.032;15.502;2023-02-15T02:48:27;61.63;;;27.25;;
32780;SDS011;19136;47.032;15.502;2023-02-15T02:50:54;56.45;;;26.48;;
32780;SDS011;19136;47.032;15.502;2023-02-15T02:53:20;63.15;;;27.10;;
32780;SDS011;19136;47.032;15.502;2023-02-15T02:58:20;59.13;;;25.75;;
32780;SDS011;19136;47.032;15.502;2023-02-15T03:00:50;58.72;;;27.33;;
32780;SDS011;19136;47.032;15.502;2023-02-15T03:06:07;61.00;;;27.17;;
32780;SDS011;19136;47.032;15.502;2023-02-15T03:08:42;57.15;;;25.50;;
32780;SDS011;19136;47.032;15.502;2023-02-15T03:11:10;61.60;;;27.02;;
32780;SDS011;19136;47.032;15.502;2023-02-15T03:13:36;57.58;;;27.13;;
32780;SDS011;19136;47.032;15.502;2023-02-15T03:16:02;57.08;;;26.15;;
32780;SDS011;19136;47.032;15.502;2023-02-15T03:18:49;61.38;;;24.42;;
32780;SDS011;19136;47.032;15.502;2023-02-15T03:24:15;60.55;;;25.98;;
32780;SDS011;19136;47.032;15.502;2023-02-15T03:26:45;63.47;;;26.05;;
32780;SDS011;19136;47.032;15.502;2023-02-15T03:29:12;60.78;;;27.52;;
32780;SDS011;19136;47.032;15.502;2023-02-15T03:31:40;66.68;;;28.75;;
32780;SDS011;19136;47.032;15.502;2023-02-15T03:34:07;63.67;;;29.05;;
32780;SDS011;19136;47.032;15.502;2023-02-15T03:39:29;62.80;;;28.20;;
32780;SDS011;19136;47.032;15.502;2023-02-15T03:42:06;67.38;;;27.65;;
32780;SDS011;19136;47.032;15.502;2023-02-15T03:47:31;64.57;;;27.30;;
32780;SDS011;19136;47.032;15.502;2023-02-15T03:50:05;65.35;;;27.35;;
32780;SDS011;19136;47.032;15.502;2023-02-15T03:52:57;68.05;;;29.83;;
32780;SDS011;19136;47.032;15.502;2023-02-15T03:55:25;67.78;;;28.15;;
32780;SDS011;19136;47.032;15.502;2023-02-15T03:57:51;64.35;;;28.88;;
32780;SDS011;19136;47.032;15.502;2023-02-15T04:00:36;71.25;;;29.02;;
32780;SDS011;19136;47.032;15.502;2023-02-15T04:03:39;71.05;;;29.30;;
32780;SDS011;19136;47.032;15.502;2023-02-15T04:06:06;66.57;;;29.42;;
32780;SDS011;19136;47.032;15.502;2023-02-15T04:08:31;66.00;;;28.67;;
32780;SDS011;19136;47.032;15.502;2023-02-15T04:11:15;69.78;;;29.65;;
32780;SDS011;19136;47.032;15.502;2023-02-15T04:13:41;68.35;;;30.70;;
32780;SDS011;19136;47.032;15.502;2023-02-15T04:16:07;70.57;;;31.75;;
32780;SDS011;19136;47.032;15.502;2023-02-15T04:18:40;63.08;;;28.60;;
32780;SDS011;19136;47.032;15.502;2023-02-15T04:21:26;64.82;;;28.48;;
32780;SDS011;19136;47.032;15.502;2023-02-15T04:24:12;68.78;;;29.40;;
32780;SDS011;19136;47.032;15.502;2023-02-15T04:26:56;59.83;;;27.75;;
32780;SDS011;19136;47.032;15.502;2023-02-15T04:29:22;66.22;;;28.60;;
32780;SDS011;19136;47.032;15.502;2023-02-15T04:31:49;66.43;;;29.02;;
32780;SDS011;19136;47.032;15.502;2023-02-15T04:34:15;67.95;;;28.60;;
32780;SDS011;19136;47.032;15.502;2023-02-15T04:36:41;68.88;;;27.67;;
32780;SDS011;19136;47.032;15.502;2023-02-15T04:39:07;66.78;;;29.00;;
32780;SDS011;19136;47.032;15.502;2023-02-15T04:41:33;69.28;;;28.60;;
32780;SDS011;19136;47.032;15.502;2023-02-15T04:43:58;66.93;;;29.63;;
32780;SDS011;19136;47.032;15.502;2023-02-15T04:46:25;65.65;;;29.27;;
32780;SDS011;19136;47.032;15.502;2023-02-15T04:48:52;74.25;;;29.35;;
32780;SDS011;19136;47.032;15.502;2023-02-15T04:51:17;63.92;;;29.25;;
32780;SDS011;19136;47.032;15.502;2023-02-15T04:53:43;67.90;;;27.58;;
32780;SDS011;19136;47.032;15.502;2023-02-15T04:56:08;66.00;;;29.15;;
32780;SDS011;19136;47.032;15.502;2023-02-15T04:58:34;67.30;;;28.90;;
32780;SDS011;19136;47.032;15.502;2023-02-15T05:01:00;62.63;;;26.77;;
32780;SDS011;19136;47.032;15.502;2023-02-15T05:03:26;59.38;;;27.40;;
32780;SDS011;19136;47.032;15.502;2023-02-15T05:05:51;64.38;;;29.20;;
32780;SDS011;19136;47.032;15.502;2023-02-15T05:08:17;66.25;;;28.42;;
32780;SDS011;19136;47.032;15.502;2023-02-15T05:10:43;62.50;;;27.92;;
32780;SDS011;19136;47.032;15.502;2023-02-15T05:13:08;60.72;;;26.95;;
32780;SDS011;19136;47.032;15.502;2023-02-15T05:15:34;68.95;;;30.15;;
32780;SDS011;19136;47.032;15.502;2023-02-15T05:17:59;66.15;;;29.08;;
32780;SDS011;19136;47.032;15.502;2023-02-15T05:20:26;69.72;;;30.10;;
32780;SDS011;19136;47.032;15.502;2023-02-15T05:22:55;68.97;;;28.80;;
32780;SDS011;19136;47.032;15.502;2023-02-15T05:25:20;62.55;;;27.98;;
32780;SDS011;19136;47.032;15.502;2023-02-15T05:28:05;66.32;;;29.20;;
32780;SDS011;19136;47.032;15.502;2023-02-15T05:30:47;62.38;;;28.05;;
32780;SDS011;19136;47.032;15.502;2023-02-15T05:33:16;64.57;;;29.42;;
32780;SDS011;19136;47.032;15.502;2023-02-15T05:35:42;68.70;;;29.02;;
32780;SDS011;19136;47.032;15.502;2023-02-15T05:38:08;65.43;;;29.52;;
32780;SDS011;19136;47.032;15.502;2023-02-15T05:40:34;65.18;;;28.23;;
32780;SDS011;19136;47.032;15.502;2023-02-15T05:42:59;69.13;;;29.67;;
32780;SDS011;19136;47.032;15.502;2023-02-15T05:45:25;63.70;;;27.30;;
32780;SDS011;19136;47.032;15.502;2023-02-15T05:47:51;62.10;;;28.58;;
32780;SDS011;19136;47.032;15.502;2023-02-15T05:50:19;67.95;;;27.98;;
32780;SDS011;19136;47.032;15.502;2023-02-15T05:52:44;64.63;;;28.45;;
32780;SDS011;19136;47.032;15.502;2023-02-15T05:55:10;66.35;;;29.70;;
32780;SDS011;19136;47.032;15.502;2023-02-15T05:57:35;69.30;;;28.35;;
32780;SDS011;19136;47.032;15.502;2023-02-15T06:00:02;69.18;;;31.90;;
32780;SDS011;19136;47.032;15.502;2023-02-15T06:02:29;71.40;;;31.83;;
32780;SDS011;19136;47.032;15.502;2023-02-15T06:04:58;70.78;;;31.23;;
32780;SDS011;19136;47.032;15.502;2023-02-15T06:07:26;71.28;;;29.85;;
32780;SDS011;19136;47.032;15.502;2023-02-15T06:09:52;64.10;;;28.45;;
32780;SDS011;19136;47.032;15.502;2023-02-15T06:12:17;65.43;;;29.42;;
32780;SDS011;19136;47.032;15.502;2023-02-15T06:14:43;72.63;;;31.42;;
32780;SDS011;19136;47.032;15.502;2023-02-15T06:17:08;68.35;;;29.90;;
32780;SDS011;19136;47.032;15.502;2023-02-15T06:19:34;72.15;;;30.58;;
32780;SDS011;19136;47.032;15.502;2023-02-15T06:21:59;77.22;;;33.92;;
32780;SDS011;19136;47.032;15.502;2023-02-15T06:24:25;70.55;;;31.58;;
32780;SDS011;19136;47.032;15.502;2023-02-15T06:26:50;89.15;;;35.10;;
32780;SDS011;19136;47.032;15.502;2023-02-15T06:29:16;78.45;;;34.50;;
32780;SDS011;19136;47.032;15.502;2023-02-15T06:31:41;81.47;;;33.92;;
32780;SDS011;19136;47.032;15.502;2023-02-15T06:34:07;88.78;;;37.53;;
32780;SDS011;19136;47.032;15.502;2023-02-15T06:36:33;74.55;;;31.25;;
32780;SDS011;19136;47.032;15.502;2023-02-15T06:38:58;82.72;;;33.42;;
32780;SDS011;19136;47.032;15.502;2023-02-15T06:41:24;81.25;;;34.15;;
32780;SDS011;19136;47.032;15.502;2023-02-15T06:43:50;80.30;;;34.45;;
32780;SDS011;19136;47.032;15.502;2023-02-15T06:46:15;82.60;;;34.55;;
32780;SDS011;19136;47.032;15.502;2023-02-15T06:48:41;87.32;;;39.20;;
32780;SDS011;19136;47.032;15.502;2023-02-15T06:51:07;87.13;;;36.03;;
32780;SDS011;19136;47.032;15.502;2023-02-15T06:53:32;77.53;;;36.28;;
32780;SDS011;19136;47.032;15.502;2023-02-15T06:56:01;84.82;;;32.60;;
32780;SDS011;19136;47.032;15.502;2023-02-15T06:58:32;84.55;;;34.80;;
32780;SDS011;19136;47.032;15.502;2023-02-15T07:00:58;77.95;;;34.03;;
32780;SDS011;19136;47.032;15.502;2023-02-15T07:03:24;79.28;;;34.53;;
32780;SDS011;19136;47.032;15.502;2023-02-15T07:05:53;84.03;;;35.58;;
32780;SDS011;19136;47.032;15.502;2023-02-15T07:08:23;78.38;;;35.65;;
32780;SDS011;19136;47.032;15.502;2023-02-15T07:10:49;81.00;;;35.03;;
32780;SDS011;19136;47.032;15.502;2023-02-15T07:13:15;85.47;;;36.35;;
32780;SDS011;19136;47.032;15.502;2023-02-15T07:15:41;87.15;;;36.97;;
32780;SDS011;19136;47.032;15.502;2023-02-15T07:18:07;87.20;;;37.33;;
32780;SDS011;19136;47.032;15.502;2023-02-15T07:20:32;84.68;;;37.25;;
32780;SDS011;19136;47.032;15.502;2023-02-15T07:23:01;83.25;;;35.08;;
32780;SDS011;19136;47.032;15.502;2023-02-15T07:25:26;76.72;;;35.60;;
32780;SDS011;19136;47.032;15.502;2023-02-15T07:27:58;78.05;;;35.58;;
32780;SDS011;19136;47.032;15.502;2023-02-15T07:30:24;88.03;;;38.03;;
32780;SDS011;19136;47.032;15.502;2023-02-15T07:32:55;82.95;;;36.40;;
32780;SDS011;19136;47.032;15.502;2023-02-15T07:36:04;79.63;;;34.60;;
32780;SDS011;19136;47.032;15.502;2023-02-15T07:38:34;77.00;;;33.28;;
32780;SDS011;19136;47.032;15.502;2023-02-15T07:41:05;81.38;;;36.50;;
32780;SDS011;19136;47.032;15.502;2023-02-15T07:43:35;79.93;;;35.85;;
32780;SDS011;19136;47.032;15.502;2023-02-15T07:46:03;91.53;;;37.25;;
32780;SDS011;19136;47.032;15.502;2023-02-15T07:48:30;79.90;;;34.28;;
32780;SDS011;19136;47.032;15.502;2023-02-15T07:51:02;76.28;;;34.28;;
32780;SDS011;19136;47.032;15.502;2023-02-15T07:53:29;78.63;;;35.22;;
32780;SDS011;19136;47.032;15.502;2023-02-15T07:55:58;78.47;;;35.58;;
32780;SDS011;19136;47.032;15.502;2023-02-15T07:58:27;81.80;;;37.22;;
32780;SDS011;19136;47.032;15.502;2023-02-15T08:01:11;93.85;;;39.05;;
32780;SDS011;19136;47.032;15.502;2023-02-15T08:03:37;81.45;;;35.03;;
32780;SDS011;19136;47.032;15.502;2023-02-15T08:06:02;76.95;;;34.85;;
32780;SDS011;19136;47.032;15.502;2023-02-15T08:08:28;74.47;;;35.10;;
32780;SDS011;19136;47.032;15.502;2023-02-15T08:10:57;83.35;;;35.95;;
32780;SDS011;19136;47.032;15.502;2023-02-15T08:13:46;77.55;;;35.08;;
32780;SDS011;19136;47.032;15.502;2023-02-15T08:16:32;80.43;;;35.90;;
32780;SDS011;19136;47.032;15.502;2023-02-15T08:19:01;83.72;;;36.25;;
32780;SDS011;19136;47.032;15.502;2023-02-15T08:21:29;80.65;;;35.88;;
32780;SDS011;19136;47.032;15.502;2023-02-15T08:23:55;85.43;;;35.50;;
32780;SDS011;19136;47.032;15.502;2023-02-15T08:26:21;81.80;;;36.80;;
32780;SDS011;19136;47.032;15.502;2023-02-15T08:28:47;78.80;;;36.65;;
32780;SDS011;19136;47.032;15.502;2023-02-15T08:31:14;80.38;;;36.72;;
32780;SDS011;19136;47.032;15.502;2023-02-15T08:33:40;72.20;;;33.25;;
32780;SDS011;19136;47.032;15.502;2023-02-15T08:36:07;81.50;;;35.78;;
32780;SDS011;19136;47.032;15.502;2023-02-15T08:38:34;79.00;;;36.83;;
32780;SDS011;19136;47.032;15.502;2023-02-15T08:41:16;85.05;;;38.17;;
32780;SDS011;19136;47.032;15.502;2023-02-15T08:43:49;86.15;;;37.70;;
32780;SDS011;19136;47.032;15.502;2023-02-15T08:46:17;75.88;;;35.45;;
32780;SDS011;19136;47.032;15.502;2023-02-15T08:48:43;78.70;;;35.45;;
32780;SDS011;19136;47.032;15.502;2023-02-15T08:51:17;84.55;;;36.08;;
32780;SDS011;19136;47.032;15.502;2023-02-15T08:53:45;80.45;;;35.13;;
32780;SDS011;19136;47.032;15.502;2023-02-15T08:56:14;80.57;;;36.78;;
32780;SDS011;19136;47.032;15.502;2023-02-15T08:58:40;85.28;;;36.67;;
32780;SDS011;19136;47.032;15.502;2023-02-15T09:03:49;85.00;;;37.38;;
32780;SDS011;19136;47.032;15.502;2023-02-15T09:06:18;84.25;;;37.42;;
32780;SDS011;19136;47.032;15.502;2023-02-15T09:08:44;77.57;;;33.58;;
32780;SDS011;19136;47.032;15.502;2023-02-15T09:11:14;74.57;;;33.75;;
32780;SDS011;19136;47.032;15.502;2023-02-15T09:13:47;80.03;;;35.42;;
32780;SDS011;19136;47.032;15.502;2023-02-15T09:16:17;77.43;;;36.30;;
32780;SDS011;19136;47.032;15.502;2023-02-15T09:18:43;85.28;;;37.25;;
32780;SDS011;19136;47.032;15.502;2023-02-15T09:21:10;78.55;;;34.90;;
32780;SDS011;19136;47.032;15.502;2023-02-15T09:23:43;77.93;;;35.70;;
32780;SDS011;19136;47.032;15.502;2023-02-15T09:26:19;91.88;;;38.33;;
32780;SDS011;19136;47.032;15.502;2023-02-15T09:28:45;78.18;;;36.05;;
32780;SDS011;19136;47.032;15.502;2023-02-15T09:31:20;87.63;;;37.72;;
32780;SDS011;19136;47.032;15.502;2023-02-15T09:33:47;83.78;;;37.15;;
32780;SDS011;19136;47.032;15.502;2023-02-15T09:36:17;96.78;;;39.80;;
32780;SDS011;19136;47.032;15.502;2023-02-15T09:38:43;85.18;;;36.60;;
32780;SDS011;19136;47.032;15.502;2023-02-15T09:41:14;79.30;;;35.85;;
32780;SDS011;19136;47.032;15.502;2023-02-15T09:44:20;80.40;;;35.33;;
32780;SDS011;19136;47.032;15.502;2023-02-15T09:50:06;86.68;;;38.70;;
32780;SDS011;19136;47.032;15.502;2023-02-15T10:00:58;83.13;;;36.17;;
32780;SDS011;19136;47.032;15.502;2023-02-15T10:06:39;80.40;;;36.45;;
32780;SDS011;19136;47.032;15.502;2023-02-15T10:27:50;92.22;;;36.20;;
32780;SDS011;19136;47.032;15.502;2023-02-15T10:41:08;41.88;;;20.17;;
32780;SDS011;19136;47.032;15.502;2023-02-15T10:46:34;49.47;;;23.23;;
32780;SDS011;19136;47.032;15.502;2023-02-15T10:54:36;47.58;;;22.17;;
32780;SDS011;19136;47.032;15.502;2023-02-15T10:57:23;45.50;;;23.67;;
32780;SDS011;19136;47.032;15.502;2023-02-15T11:02:43;54.33;;;26.83;;
32780;SDS011;19136;47.032;15.502;2023-02-15T11:08:10;49.42;;;24.10;;
32780;SDS011;19136;47.032;15.502;2023-02-15T11:10:44;62.13;;;29.90;;
32780;SDS011;19136;47.032;15.502;2023-02-15T11:13:36;49.45;;;24.83;;
32780;SDS011;19136;47.032;15.502;2023-02-15T11:16:05;75.68;;;37.20;;
32780;SDS011;19136;47.032;15.502;2023-02-15T11:18:42;61.83;;;28.60;;
32780;SDS011;19136;47.032;15.502;2023-02-15T11:21:13;49.30;;;24.73;;
32780;SDS011;19136;47.032;15.502;2023-02-15T11:23:57;72.25;;;34.22;;
32780;SDS011;19136;47.032;15.502;2023-02-15T11:29:07;68.18;;;35.58;;
32780;SDS011;19136;47.032;15.502;2023-02-15T11:43:35;81.45;;;37.15;;
32780;SDS011;19136;47.032;15.502;2023-02-15T11:46:10;81.43;;;34.72;;
32780;SDS011;19136;47.032;15.502;2023-02-15T11:48:36;71.72;;;30.02;;
32780;SDS011;19136;47.032;15.502;2023-02-15T11:51:02;80.45;;;33.28;;
32780;SDS011;19136;47.032;15.502;2023-02-15T11:53:32;79.35;;;34.17;;
32780;SDS011;19136;47.032;15.502;2023-02-15T11:55:59;87.15;;;36.97;;
32780;SDS011;19136;47.032;15.502;2023-02-15T12:01:16;75.88;;;32.95;;
32780;SDS011;19136;47.032;15.502;2023-02-15T12:03:54;84.85;;;37.50;;
32780;SDS011;19136;47.032;15.502;2023-02-15T12:06:30;78.00;;;35.85;;
32780;SDS011;19136;47.032;15.502;2023-02-15T12:09:06;82.60;;;38.53;;
32780;SDS011;19136;47.032;15.502;2023-02-15T12:11:54;83.65;;;34.72;;
32780;SDS011;19136;47.032;15.502;2023-02-15T12:14:47;84.95;;;37.08;;
32780;SDS011;19136;47.032;15.502;2023-02-15T12:17:14;72.57;;;31.90;;
32780;SDS011;19136;47.032;15.502;2023-02-15T12:19:41;85.03;;;35.50;;
32780;SDS011;19136;47.032;15.502;2023-02-15T12:22:17;82.65;;;34.97;;
32780;SDS011;19136;47.032;15.502;2023-02-15T12:24:58;83.30;;;35.47;;
32780;SDS011;19136;47.032;15.502;2023-02-15T12:27:27;78.55;;;36.65;;
32780;SDS011;19136;47.032;15.502;2023-02-15T12:30:05;83.00;;;37.40;;
32780;SDS011;19136;47.032;15.502;2023-02-15T12:32:56;73.70;;;32.15;;
32780;SDS011;19136;47.032;15.502;2023-02-15T12:35:29;74.20;;;33.25;;
32780;SDS011;19136;47.032;15.502;2023-02-15T12:37:58;66.55;;;29.10;;
32780;SDS011;19136;47.032;15.502;2023-02-15T12:40:28;72.93;;;34.05;;
32780;SDS011;19136;47.032;15.502;2023-02-15T12:42:54;77.85;;;33.97;;
32780;SDS011;19136;47.032;15.502;2023-02-15T12:45:25;79.40;;;33.38;;
32780;SDS011;19136;47.032;15.502;2023-02-15T12:50:39;73.15;;;33.15;;
32780;SDS011;19136;47.032;15.502;2023-02-15T12:53:07;71.10;;;32.95;;
32780;SDS011;19136;47.032;15.502;2023-02-15T12:58:59;71.80;;;32.38;;
32780;SDS011;19136;47.032;15.502;2023-02-15T13:01:31;77.93;;;34.83;;
32780;SDS011;19136;47.032;15.502;2023-02-15T13:04:04;71.10;;;32.58;;
32780;SDS011;19136;47.032;15.502;2023-02-15T13:06:31;75.15;;;33.88;;
32780;SDS011;19136;47.032;15.502;2023-02-15T13:09:08;73.60;;;33.17;;
32780;SDS011;19136;47.032;15.502;2023-02-15T13:11:40;80.88;;;37.00;;
32780;SDS011;19136;47.032;15.502;2023-02-15T13:14:17;76.95;;;34.50;;
32780;SDS011;19136;47.032;15.502;2023-02-15T13:16:45;77.43;;;33.45;;
32780;SDS011;19136;47.032;15.502;2023-02-15T13:21:46;89.03;;;37.40;;
32780;SDS011;19136;47.032;15.502;2023-02-15T13:24:23;87.80;;;33.92;;
32780;SDS011;19136;47.032;15.502;2023-02-15T13:26:49;75.28;;;33.15;;
32780;SDS011;19136;47.032;15.502;2023-02-15T13:29:23;79.43;;;33.55;;
32780;SDS011;19136;47.032;15.502;2023-02-15T13:31:53;76.68;;;32.88;;
32780;SDS011;19136;47.032;15.502;2023-02-15T13:34:25;74.78;;;33.25;;
32780;SDS011;19136;47.032;15.502;2023-02-15T13:37:15;74.00;;;31.80;;
32780;SDS011;19136;47.032;15.502;2023-02-15T13:39:47;74.97;;;31.65;;
32780;SDS011;19136;47.032;15.502;2023-02-15T13:52:31;82.35;;;32.50;;
32780;SDS011;19136;47.032;15.502;2023-02-15T14:00:47;78.78;;;32.60;;
32780;SDS011;19136;47.032;15.502;2023-02-15T14:03:36;75.95;;;31.90;;
32780;SDS011;19136;47.032;15.502;2023-02-15T14:06:37;75.43;;;32.67;;
32780;SDS011;19136;47.032;15.502;2023-02-15T14:23:50;85.18;;;33.75;;
32780;SDS011;19136;47.032;15.502;2023-02-15T14:26:40;80.80;;;33.63;;
32780;SDS011;19136;47.032;15.502;2023-02-15T14:35:04;90.18;;;37.70;;
32780;SDS011;19136;47.032;15.502;2023-02-15T14:46:16;90.72;;;32.42;;
32780;SDS011;19136;47.032;15.502;2023-02-15T14:48:45;78.70;;;33.72;;
32780;SDS011;19136;47.032;15.502;2023-02-15T14:54:09;83.28;;;33.03;;
32780;SDS011;19136;47.032;15.502;2023-02-15T14:56:35;88.28;;;35.65;;
32780;SDS011;19136;47.032;15.502;2023-02-15T14:59:11;86.93;;;36.60;;
32780;SDS011;19136;47.032;15.502;2023-02-15T15:01:52;87.88;;;34.33;;
32780;SDS011;19136;47.032;15.502;2023-02-15T15:04:31;83.50;;;34.70;;
32780;SDS011;19136;47.032;15.502;2023-02-15T15:09:31;84.65;;;31.80;;
32780;SDS011;19136;47.032;15.502;2023-02-15T15:14:46;81.03;;;35.05;;
32780;SDS011;19136;47.032;15.502;2023-02-15T15:17:13;86.78;;;34.22;;
32780;SDS011;19136;47.032;15.502;2023-02-15T15:19:59;82.60;;;35.97;;
32780;SDS011;19136;47.032;15.502;2023-02-15T15:22:30;92.93;;;37.08;;
32780;SDS011;19136;47.032;15.502;2023-02-15T15:24:58;82.25;;;33.95;;
32780;SDS011;19136;47.032;15.502;2023-02-15T15:35:13;73.70;;;31.20;;
32780;SDS011;19136;47.032;15.502;2023-02-15T15:38:08;76.38;;;32.95;;
32780;SDS011;19136;47.032;15.502;2023-02-15T15:46:44;84.88;;;35.58;;
32780;SDS011;19136;47.032;15.502;2023-02-15T15:49:20;77.22;;;34.13;;
32780;SDS011;19136;47.032;15.502;2023-02-15T15:51:48;77.82;;;32.70;;
32780;SDS011;19136;47.032;15.502;2023-02-15T15:54:24;81.43;;;34.22;;
32780;SDS011;19136;47.032;15.502;2023-02-15T15:56:52;77.03;;;32.90;;
32780;SDS011;19136;47.032;15.502;2023-02-15T15:59:22;86.03;;;34.08;;
32780;SDS011;19136;47.032;15.502;2023-02-15T16:01:50;80.65;;;34.28;;
32780;SDS011;19136;47.032;15.502;2023-02-15T16:06:51;77.55;;;34.45;;
32780;SDS011;19136;47.032;15.502;2023-02-15T16:09:24;74.93;;;30.77;;
32780;SDS011;19136;47.032;15.502;2023-02-15T16:11:52;81.88;;;31.98;;
32780;SDS011;19136;47.032;15.502;2023-02-15T16:14:24;75.03;;;32.78;;
32780;SDS011;19136;47.032;15.502;2023-02-15T16:16:53;78.20;;;33.80;;
32780;SDS011;19136;47.032;15.502;2023-02-15T16:19:24;84.82;;;35.28;;
32780;SDS011;19136;47.032;15.502;2023-02-15T16:21:52;82.43;;;33.90;;
32780;SDS011;19136;47.032;15.502;2023-02-15T16:24:33;92.32;;;35.05;;
32780;SDS011;19136;47.032;15.502;2023-02-15T16:27:12;92.90;;;34.70;;
32780;SDS011;19136;47.032;15.502;2023-02-15T16:29:50;97.40;;;36.88;;
32780;SDS011;19136;47.032;15.502;2023-02-15T16:32:20;99.35;;;37.88;;
32780;SDS011;19136;47.032;15.502;2023-02-15T16:34:54;87.40;;;35.75;;
32780;SDS011;19136;47.032;15.502;2023-02-15T16:37:28;88.20;;;35.85;;
32780;SDS011;19136;47.032;15.502;2023-02-15T16:39:57;91.68;;;36.40;;
32780;SDS011;19136;47.032;15.502;2023-02-15T16:42:24;90.43;;;36.58;;
32780;SDS011;19136;47.032;15.502;2023-02-15T16:47:41;94.18;;;34.80;;
32780;SDS011;19136;47.032;15.502;2023-02-15T16:50:30;87.45;;;34.60;;
32780;SDS011;19136;47.032;15.502;2023-02-15T16:52:59;85.65;;;34.05;;
32780;SDS011;19136;47.032;15.502;2023-02-15T16:55:27;93.50;;;35.63;;
32780;SDS011;19136;47.032;15.502;2023-02-15T16:57:56;87.40;;;34.63;;
32780;SDS011;19136;47.032;15.502;2023-02-15T17:00:25;90.53;;;35.45;;
32780;SDS011;19136;47.032;15.502;2023-02-15T17:02:59;92.00;;;36.30;;
32780;SDS011;19136;47.032;15.502;2023-02-15T17:05:32;90.38;;;35.33;;
32780;SDS011;19136;47.032;15.502;2023-02-15T17:08:10;95.03;;;37.08;;
32780;SDS011;19136;47.032;15.502;2023-02-15T17:10:40;87.45;;;36.53;;
32780;SDS011;19136;47.032;15.502;2023-02-15T17:13:10;88.03;;;34.65;;
32780;SDS011;19136;47.032;15.502;2023-02-15T17:15:44;86.88;;;35.72;;
32780;SDS011;19136;47.032;15.502;2023-02-15T17:18:32;99.03;;;37.35;;
32780;SDS011;19136;47.032;15.502;2023-02-15T17:21:17;85.28;;;35.28;;
32780;SDS011;19136;47.032;15.502;2023-02-15T17:23:46;93.70;;;36.05;;
32780;SDS011;19136;47.032;15.502;2023-02-15T17:26:14;97.35;;;37.60;;
32780;SDS011;19136;47.032;15.502;2023-02-15T17:28:51;103.93;;;38.33;;
32780;SDS011;19136;47.032;15.502;2023-02-15T17:31:19;94.72;;;36.35;;
32780;SDS011;19136;47.032;15.502;2023-02-15T17:33:46;96.15;;;37.72;;
32780;SDS011;19136;47.032;15.502;2023-02-15T17:36:17;101.72;;;36.92;;
32780;SDS011;19136;47.032;15.502;2023-02-15T17:41:43;105.25;;;37.92;;
32780;SDS011;19136;47.032;15.502;2023-02-15T17:44:09;94.45;;;37.10;;
32780;SDS011;19136;47.032;15.502;2023-02-15T17:46:39;97.82;;;39.88;;
32780;SDS011;19136;47.032;15.502;2023-02-15T17:49:05;95.90;;;38.75;;
32780;SDS011;19136;47.032;15.502;2023-02-15T17:51:32;102.97;;;40.72;;
32780;SDS011;19136;47.032;15.502;2023-02-15T17:54:00;115.35;;;41.97;;